Cuddapah, Cuddapah Airport (VOCP)

NameCuddapah Airport
CityCuddapah
CountryIndia
ICAOVOCP
IATACDP
Altitude131 m
CoordinatesGoogle Map
Live Air TrafficLiveATC.net
METARVOCP 191000Z 04005KT 6000 FEW020 39/19 Q1004
2019-04-19 10:00:00 Wind: North-Northeast (40°) 2.57 m/s - Visibility: 6000 m - Temperature: 39 °C - Dew point: 19 °C - Humidity: 31.1% - Pressure: 1004 hPa

Sorry, no flights used the airport in this database.